RAR weather

Rarotonga International Airport
Avarua, Cook Islands

Public forecast

Using degrees Celsius for public forecast. Weather courtesy of forecast.io.

Current aviation weather report (METAR) for Rarotonga International Airport

Retrieved 2019/10/14 14:30 UTC (0 seconds ago):

NCRG 141430Z AUTO 10004KT 9999 -RA SCT021/// BKN028/// BKN055/// 21/19 Q1014

Aviation forecast (TAF) for Rarotonga International Airport

Retrieved 2019/10/14 12:00 UTC (2 hours ago):

TAF NCRG 141111Z 1412/1512 10006KT 9999 SCT020 SCT050